• Join FlightAware (Why Join?)
  • Login
  • US Flag GB Flag 
18:40 EDT


 

Airport Tracker/Info


-or-


 

Live Flight TrackerFlight Track Log ✈ N6ZQ ✈ 09-Oct-2013 ✈ KRMN - KBCT

Flight Track Log - Related Links

Times and Time Zones

All times are in EDT time to prevent confusion due to time zone crossing. See the N6ZQ flight status page for this flight to view local times or setup timezone preferences in your user account.

Time Position Orientation Groundspeed Altitude Reporting Facility
EDT Latitude Longitude Course Direction KTS MPH feet Rate Location/Type
08:23 38.4167 -77.4500 242° Southwest 132 152 1,700  Level Potomac TRACON
08:24 38.3833 -77.4167 142° Southeast 151 174 2,500 600 Climbing Potomac TRACON
08:25 38.3500 -77.3667 130° Southeast 156 180 2,900 180 Climbing Potomac TRACON
08:26 38.3167 -77.3833 201° Southwest 197 227 2,900 420 Level Potomac TRACON
08:27 38.3167 -77.4333 270° West 192 221 3,800 900 Climbing Potomac TRACON
08:28 38.3167 -77.5000 270° West 178 205 4,800 900 Climbing Potomac TRACON
08:29 38.0680 -77.5392 242° Southwest  Level Estimated
08:29 38.3167 -77.5667 270° West 181 208 5,700  Level Potomac TRACON
08:30 38.3333 -77.6192 292° West 193 222 6,200 780 Climbing Washington Center
08:31 38.3386 -77.6778 277° West 193 222 7,200 840 Climbing Washington Center
08:32 38.3231 -77.7300 249° West 177 204 7,900 600 Climbing Washington Center
08:33 38.2889 -77.7767 227° Southwest 166 191 8,500 540 Climbing Washington Center
08:34 38.2569 -77.8208 227° Southwest 173 199 9,100 600 Climbing Washington Center
08:35 38.2225 -77.8672 227° Southwest 179 206 9,700 600 Climbing Washington Center
08:36 38.1842 -77.9136 224° Southwest 179 206 10,300 600 Climbing Washington Center
08:37 38.1561 -77.9603 233° Southwest 179 206 11,000 600 Climbing Washington Center
08:38 38.1219 -78.0042 225° Southwest 179 206 11,500 420 Climbing Washington Center
08:39 38.0897 -78.0481 227° Southwest 179 206 11,900 240 Climbing Washington Center
08:40 38.0553 -78.0997 230° Southwest 189 217 12,000  Climbing Washington Center
08:41 38.0247 -78.1592 237° Southwest 201 231 12,000  Level Washington Center
08:42 37.9764 -78.1786 198° South 196 226 12,000  Level Washington Center
08:43 37.9278 -78.2111 208° Southwest 196 226 12,000  Level Washington Center
08:44 37.8750 -78.2358 200° South 206 237 12,000 -60 Level Washington Center
08:45 37.8183 -78.2625 200° South 206 237 11,900 -60 Descending Washington Center
08:46 37.7653 -78.2922 204° Southwest 206 237 11,900  Level Washington Center
08:47 37.7125 -78.3192 202° Southwest 206 237 12,000  Climbing Washington Center
08:48 37.6619 -78.3464 203° Southwest 206 237 12,000  Level Washington Center
08:49 37.6133 -78.3733 204° Southwest 206 237 12,000 -60 Level Washington Center
08:50 37.5625 -78.4031 205° Southwest 211 243 11,900 -60 Descending Washington Center
08:51 37.5078 -78.4325 203° Southwest 211 243 11,900  Level Washington Center
08:52 37.4569 -78.4619 205° Southwest 211 243 11,900  Level Washington Center
08:53 37.3978 -78.4964 205° Southwest 216 249 12,000  Climbing Washington Center
08:54 37.3469 -78.5231 203° Southwest 216 249 12,000 -60 Level Washington Center
08:55 37.2961 -78.5525 205° Southwest 211 243 11,900  Descending Washington Center
08:56 37.2436 -78.5686 194° South 206 237 12,000  Climbing Washington Center
08:57 37.1908 -78.5928 200° South 206 237 12,000  Level Washington Center
08:58 37.1483 -78.6222 209° Southwest 206 237 12,000  Level Washington Center
08:59 37.0975 -78.6567 208° Southwest 206 237 12,000  Level Washington Center
09:00 37.0467 -78.6858 205° Southwest 206 237 12,000  Level Washington Center
09:01 36.9958 -78.7150 205° Southwest 206 237 12,100  Climbing Washington Center
09:02 36.9386 -78.7517 207° Southwest 206 237 12,000 -60 Descending Washington Center
09:03 36.8878 -78.7808 205° Southwest 206 237 12,000  Level Washington Center
09:04 36.8369 -78.8100 205° Southwest 206 237 12,000  Level Washington Center
09:05 36.7839 -78.8389 204° Southwest 206 237 12,000  Level Washington Center
09:06 36.7369 -78.8758 212° Southwest 206 237 12,000  Level Washington Center
09:07 36.7311 -78.9403 264° West 190 219 12,000  Level Washington Center
09:08 36.7186 -79.0097 257° West 196 226 12,000  Level Washington Center
09:09 36.6939 -79.0733 244° Southwest 202 232 12,000  Level Washington Center
09:10 36.6628 -79.1342 237° Southwest 207 238 12,100  Climbing Washington Center
09:11 36.6317 -79.2000 240° Southwest 213 245 12,000 -60 Descending Washington Center
09:12 36.5806 -79.2364 210° Southwest 207 238 12,000  Level Washington Center
09:13 36.5275 -79.2625 202° Southwest 207 238 12,000  Level Washington Center
09:14 36.4728 -79.2806 195° South 207 238 12,000  Level Washington Center
09:15 36.4197 -79.3039 199° South 207 238 12,000  Level Washington Center
09:17 36.3506 -79.3473 207° Southwest  Level FlightAware Approximate
09:21 36.1064 -79.4536 200° South 212 244 12,000  Level Washington Center
09:22 36.0514 -79.4764 199° South 229 264 12,100  Climbing Washington Center
09:23 36.0003 -79.5047 204° Southwest 213 245 12,000 -60 Descending Washington Center
09:24 36.0150 -79.5124 200° South  Level FlightAware Approximate
09:24 35.9472 -79.5331 203° Southwest 213 245 12,000  Level Washington Center
09:25 35.9664 -79.5340 200° South  Level FlightAware Approximate
09:25 35.8964 -79.5586 202° Southwest 208 239 12,000  Level Washington Center
09:26 35.9178 -79.5556 200° South  Level FlightAware Approximate
09:26 35.8411 -79.5842 201° Southwest 208 239 12,000  Level Washington Center
09:27 35.7842 -79.6042 196° South 214 246 12,000  Level Washington Center
09:28 35.7289 -79.6322 202° Southwest 214 246 12,000  Level Washington Center
09:29 35.6719 -79.6547 198° South 214 246 12,000  Level Washington Center
09:30 35.6169 -79.6775 199° South 214 246 12,000  Level Washington Center
09:31 35.5636 -79.7056 203° Southwest 215 247 12,000 -60 Level Washington Center
09:32 35.5064 -79.7306 200° South 220 253 11,900  Descending Washington Center
09:33 35.4492 -79.7556 200° South 220 253 12,000  Climbing Washington Center
09:34 35.3900 -79.7831 201° Southwest 220 253 12,000  Level Washington Center
09:35 35.3325 -79.8108 202° Southwest 220 253 12,000  Level Washington Center
09:36 35.2731 -79.8381 201° Southwest 225 259 12,000 -60 Level Washington Center
09:37 35.2119 -79.8578 195° South 230 265 11,900 -60 Descending Washington Center
09:38 35.1519 -79.8469 172° South 224 258 11,900  Level Washington Center
09:39 35.0911 -79.8539 185° South 224 258 11,900  Level Washington Center
09:40 35.0319 -79.8761 197° South 224 258 12,000  Climbing Washington Center
09:42 34.9075 -79.9386 202° Southwest 222 255 12,000  Level Jacksonville Center
09:43 34.8517 -79.9658 202° Southwest 222 255 12,000  Level Jacksonville Center
09:44 34.7939 -79.9906 199° South 227 261 12,000  Level Jacksonville Center
09:45 34.7383 -80.0175 202° Southwest 227 261 12,000  Level Jacksonville Center
09:46 34.6825 -80.0447 202° Southwest 227 261 12,000  Level Jacksonville Center
09:47 34.6247 -80.0719 201° Southwest 227 261 12,000  Level Jacksonville Center
09:48 34.5692 -80.1014 204° Southwest 227 261 12,000  Level Jacksonville Center
09:49 34.5114 -80.1258 199° South 227 261 12,000  Level Jacksonville Center
09:50 34.4533 -80.1506 199° South 232 267 12,000  Level Jacksonville Center
09:51 34.3978 -80.1800 204° Southwest 232 267 12,000  Level Jacksonville Center
09:52 34.3397 -80.2069 201° Southwest 232 267 12,000  Level Jacksonville Center
09:53 34.2839 -80.2261 196° South 232 267 12,000  Level Jacksonville Center
09:54 34.2283 -80.2606 207° Southwest 232 267 12,000  Level Jacksonville Center
09:55 34.1703 -80.2797 195° South 232 267 12,000  Level Jacksonville Center
09:56 34.1125 -80.3092 203° Southwest 227 261 12,000  Level Jacksonville Center
09:57 34.0567 -80.3383 203° Southwest 227 261 12,000  Level Jacksonville Center
09:58 33.9989 -80.3625 199° South 227 261 12,000 -60 Level Jacksonville Center
09:59 33.9431 -80.3892 202° Southwest 227 261 11,900 -60 Descending Jacksonville Center
10:00 33.8872 -80.4158 202° Southwest 227 261 11,900  Level Jacksonville Center
10:01 33.8272 -80.4425 200° South 227 261 11,900  Level Jacksonville Center
10:02 33.7714 -80.4692 202° Southwest 227 261 11,900  Level Jacksonville Center
10:03 33.7136 -80.4956 201° Southwest 227 261 11,900  Level Jacksonville Center
10:04 33.6578 -80.5222 202° Southwest 227 261 11,900  Level Jacksonville Center
10:05 33.5997 -80.5486 201° Southwest 227 261 11,900  Level Jacksonville Center
10:06 33.5439 -80.5750 202° Southwest 227 261 11,900  Level Jacksonville Center
10:07 33.4881 -80.6014 202° Southwest 227 261 11,900  Level Jacksonville Center
10:08 33.4322 -80.6278 202° Southwest 227 261 11,900  Level Jacksonville Center
10:09 33.3719 -80.6517 198° South 227 261 11,900  Level Jacksonville Center
10:10 33.3161 -80.6778 201° Southwest 227 261 11,900  Level Jacksonville Center
10:11 33.2622 -80.7042 202° Southwest 227 261 11,900  Level Jacksonville Center
10:12 33.2042 -80.7278 199° South 227 261 11,900  Level Jacksonville Center
10:13 33.1483 -80.7539 201° Southwest 227 261 11,900  Level Jacksonville Center
10:14 33.0925 -80.7800 201° Southwest 227 261 11,900  Level Jacksonville Center
10:15 33.0364 -80.8036 199° South 227 261 11,900  Level Jacksonville Center
10:16 32.9786 -80.8297 201° Southwest 227 261 11,900  Level Jacksonville Center
10:17 32.9206 -80.8558 201° Southwest 227 261 11,900  Level Jacksonville Center
10:18 32.8644 -80.8819 201° Southwest 227 261 11,900  Level Jacksonville Center
10:19 32.8086 -80.9053 199° South 227 261 11,900  Level Jacksonville Center
10:20 32.7525 -80.9314 201° Southwest 227 261 11,900  Level Jacksonville Center
10:21 32.6944 -80.9572 201° Southwest 227 261 11,900  Level Jacksonville Center
10:22 32.6386 -80.9806 199° South 227 261 11,900  Level Jacksonville Center
10:23 32.5825 -81.0067 201° Southwest 227 261 11,900  Level Jacksonville Center
10:24 32.5267 -81.0322 201° Southwest 227 261 12,000  Climbing Jacksonville Center
10:25 32.4644 -81.0606 201° Southwest 227 261 12,000 -60 Level Jacksonville Center
10:26 32.4083 -81.0864 201° Southwest 232 267 11,900 -60 Descending Jacksonville Center
10:27 32.3503 -81.1097 199° South 227 261 11,900  Level Jacksonville Center
10:28 32.2942 -81.1353 201° Southwest 221 254 11,900  Level Jacksonville Center
10:29 32.2383 -81.1611 201° Southwest 221 254 11,900  Level Jacksonville Center
10:30 32.1822 -81.1867 201° Southwest 221 254 11,900  Level Jacksonville Center
10:31 32.1239 -81.1950 187° South 215 247 11,900  Level Jacksonville Center
10:32 32.0633 -81.1961 181° South 215 247 11,900  Level Jacksonville Center
10:33 32.0047 -81.1900 175° South 220 253 11,900  Level Jacksonville Center
10:34 31.9464 -81.1886 179° South 214 246 11,900  Level Jacksonville Center
10:35 31.8836 -81.1822 175° South 214 246 11,900  Level Jacksonville Center
10:36 31.8272 -81.1833 181° South 208 239 12,000  Climbing Jacksonville Center
10:37 31.7667 -81.1772 175° South 216 249 12,000  Level Jacksonville Center
10:38 31.7122 -81.1733 177° South 216 249 12,000  Level Jacksonville Center
10:39 31.6475 -81.1697 177° South 216 249 12,000  Level Jacksonville Center
10:40 31.5931 -81.1681 179° South 216 249 12,000  Level Jacksonville Center
10:41 31.5283 -81.1644 177° South 216 249 12,000  Level Jacksonville Center
10:42 31.4719 -81.1606 177° South 216 249 12,000  Level Jacksonville Center
10:43 31.4178 -81.1567 176° South 216 249 12,000  Level Jacksonville Center
10:44 31.3550 -81.1531 177° South 216 249 12,000 -60 Level Jacksonville Center
10:45 31.3006 -81.1542 181° South 216 249 11,900 -60 Descending Jacksonville Center
10:46 31.2400 -81.1503 177° South 216 249 11,900  Level Jacksonville Center
10:47 31.1836 -81.1442 175° South 216 249 11,900  Level Jacksonville Center
10:48 31.1250 -81.1403 177° South 216 249 11,900  Level Jacksonville Center
10:49 31.0686 -81.1389 179° South 216 249 11,900  Level Jacksonville Center
10:50 31.0081 -81.1353 177° South 216 249 11,900  Level Jacksonville Center
10:51 30.9517 -81.1314 177° South 216 249 11,900  Level Jacksonville Center
10:52 30.8933 -81.1300 179° South 216 249 11,900  Level Jacksonville Center
10:53 30.8347 -81.1239 175° South 216 249 11,900  Level Jacksonville Center
10:54 30.7783 -81.1228 179° South 216 249 11,900 60 Level Jacksonville Center
10:54 30.7678 -81.1228 180° South 204 235 12,000 120 Climbing Jacksonville Center
10:55 30.7281 -81.1211 178° South 211 243 12,000 -120 Level Jacksonville Center
10:55 30.7219 -81.1189 163° South 216 249 11,900 -120 Descending Jacksonville Center
10:56 30.6614 -81.1153 177° South 216 249 11,900  Level Jacksonville Center
10:57 30.6069 -81.1136 178° South 216 249 11,900  Level Jacksonville Center
10:58 30.5486 -81.1147 181° South 203 234 12,000 60 Climbing Jacksonville Center
10:58 30.5486 -81.1147 181° South 216 249 12,000  Level Jacksonville Center
10:59 30.4900 -81.1136 179° South 211 243 12,000  Level Jacksonville Center
10:59 30.4858 -81.1136 180° South 206 237 12,000  Level Jacksonville Center
11:00 30.4294 -81.1147 181° South 206 237 12,000  Level Jacksonville Center
11:00 30.4317 -81.1147 360° North 218 251 12,000  Level Jacksonville Center
11:01 30.3772 -81.1156 181° South 207 238 12,000  Level Jacksonville Center
11:01 30.3772 -81.1133 90° East 218 251 12,000  Level Jacksonville Center
11:02 30.3083 -81.1144 181° South 206 237 12,000  Level Jacksonville Center
11:03 30.2542 -81.1131 179° South 205 236 12,000  Level Jacksonville Center
11:04 30.1978 -81.1142 181° South 204 235 12,000  Level Jacksonville Center
11:05 30.1475 -81.1128 179° South 205 236 12,000  Level Jacksonville Center
11:05 30.1414 -81.1175 214° Southwest 203 234 12,000  Level Jacksonville Center
11:06 30.0914 -81.1161 179° South 205 236 12,000  Level Jacksonville Center
11:06 30.0850 -81.1161 180° South 204 235 12,000  Level Jacksonville Center
11:07 30.0328 -81.1172 181° South 212 244 12,000  Level Jacksonville Center
11:08 29.9744 -81.1158 179° South 219 252 12,000  Level Jacksonville Center
11:09 29.9158 -81.1169 181° South 214 246 12,000  Level Jacksonville Center
11:10 29.8594 -81.1156 179° South 209 241 12,000  Level Jacksonville Center
11:11 29.8031 -81.1142 179° South 209 241 12,000  Level Jacksonville Center
11:12 29.7469 -81.1175 183° South 209 241 12,000  Level Jacksonville Center
11:13 29.6944 -81.0969 161° South 209 241 12,000  Level Jacksonville Center
11:14 29.6358 -81.0861 171° South 209 241 12,000  Level Jacksonville Center
11:15 29.5792 -81.0681 165° South 209 241 12,000  Level Jacksonville Center
11:16 29.5267 -81.0475 161° South 203 234 12,000  Level Jacksonville Center
11:17 29.4722 -81.0272 162° South 203 234 12,000  Level Jacksonville Center
11:18 29.4197 -81.0067 161° South 203 234 12,100  Climbing Jacksonville Center
11:19 29.3650 -80.9864 162° South 208 239 12,100  Level Jacksonville Center
11:20 29.3106 -80.9706 166° South 208 239 12,100  Level Jacksonville Center
11:21 29.2581 -80.9503 161° South 208 239 12,100  Level Jacksonville Center
11:22 29.2036 -80.9347 166° South 208 239 12,100  Level Jacksonville Center
11:23 29.1511 -80.9144 161° South 208 239 12,100  Level Jacksonville Center
11:24 29.0964 -80.8964 164° South 208 239 12,100  Level Jacksonville Center
11:25 29.0419 -80.8786 164° South 208 239 12,100  Level Jacksonville Center
11:26 28.9894 -80.8583 161° South 208 239 12,100  Level Jacksonville Center
11:27 28.9328 -80.8428 166° South 208 239 12,100  Level Jacksonville Center
11:28 28.8803 -80.8203 159° South 208 239 12,100 -60 Level Jacksonville Center
11:29 28.8500 -80.8000 150° Southeast 202 232 12,000 -60 Descending Orlando TRACON
11:30 28.7833 -80.7833 168° South 202 232 12,000  Level Orlando TRACON
11:31 28.7333 -80.7667 164° South 204 235 12,000  Level Orlando TRACON
11:32 28.6833 -80.7500 164° South 203 234 12,000  Level Orlando TRACON
11:33 28.6167 -80.7333 168° South 200 230 12,000  Level Orlando TRACON
11:34 28.5667 -80.7167 164° South 199 229 12,000  Level Orlando TRACON
11:35 28.5167 -80.7000 164° South 200 230 12,000  Level Orlando TRACON
11:36 28.4667 -80.6833 164° South 196 226 12,000 -60 Level Orlando TRACON
11:38 28.3344 -80.6375 163° South 200 230 11,900 -60 Descending Miami Center
11:39 28.2786 -80.6192 164° South 205 236 11,900  Level Miami Center
11:40 28.2269 -80.6008 163° South 200 230 12,000  Climbing Miami Center
11:41 28.1750 -80.5828 163° South 200 230 12,000  Level Miami Center
11:42 28.1214 -80.5669 165° South 200 230 12,000  Level Miami Center
11:43 28.0694 -80.5511 165° South 200 230 12,000 -240 Level Miami Center
11:44 28.0156 -80.5353 165° South 200 230 11,600 -480 Descending Miami Center
11:45 27.9536 -80.5144 163° South 205 236 11,100 -540 Descending Miami Center
11:46 27.8936 -80.4958 165° South 210 242 10,600 -600 Descending Miami Center
11:47 27.8336 -80.4728 161° South 223 257 10,000 -600 Descending Miami Center
11:48 27.7736 -80.4547 165° South 223 257 9,500 -540 Descending Miami Center
11:49 27.7092 -80.4339 164° South 223 257 9,000 -600 Descending Miami Center
11:50 27.6472 -80.4156 165° South 228 262 8,400 -540 Descending Miami Center
11:51 27.5850 -80.3947 163° South 228 262 8,000 -240 Descending Miami Center
11:52 27.5394 -80.3794 163° South 228 262 8,000 -180 Level Miami Center
11:53 27.4731 -80.3561 163° South 218 251 7,700 -420 Descending Miami Center
11:54 27.4153 -80.3333 161° South 218 251 7,200 -540 Descending Miami Center
11:55 27.3531 -80.3128 164° South 223 257 6,700 -540 Descending Miami Center
11:56 27.2911 -80.2900 162° South 223 257 6,200 -360 Descending Miami Center
11:57 27.2289 -80.2694 164° South 223 257 6,000 -120 Descending Miami Center
11:58 27.1731 -80.2514 164° South 223 257 6,000 -300 Level Miami Center
11:59 27.1108 -80.2333 166° South 223 257 5,500 -600 Descending Miami Center
12:00 27.0506 -80.2106 161° South 223 257 4,900 -300 Descending Miami Center
12:01 26.9906 -80.1925 165° South 223 257 4,900  Level Miami Center
12:02 26.9347 -80.1722 162° South 223 257 4,900  Level Miami Center
12:03 26.8808 -80.1544 164° South 218 251 4,900  Level Miami Center
12:05 26.8116 -80.1602 184° South  Level FlightAware Approximate
12:12 26.4097 -80.1053 170° South  Level FlightAware Approximate
12:13 26.3785 -80.1077 180° South  Level Estimated
12:14 26.3785 -80.1077 180° South  Level Estimated
12:15 26.3785 -80.1077 180° South  Level Estimated
12:16 26.3785 -80.1077 180° South  Level Estimated
12:17 26.3785 -80.1077 180° South  Level Estimated
12:18 26.3785 -80.1077 180° South  Level Estimated
12:19 26.3785 -80.1077 180° South  Level Estimated
12:20 26.3785 -80.1077 180° South  Level Estimated
12:21 26.3785 -80.1077 180° South  Level Estimated
12:22 26.3785 -80.1077 180° South  Level Estimated
12:23 26.3785 -80.1077 180° South  Level Estimated
12:24 26.3785 -80.1077 180° South  Level Estimated